createdAt,value
2017-12-26T00:00:40.641Z,6.50
2017-12-26T00:01:39.650Z,6.50
2017-12-26T00:02:40.178Z,6.10
2017-12-26T00:03:40.268Z,6.00
2017-12-26T00:04:39.696Z,7.80
2017-12-26T00:05:40.062Z,6.80
2017-12-26T00:06:41.350Z,6.80
2017-12-26T00:07:40.166Z,7.10
2017-12-26T00:08:39.770Z,5.70
2017-12-26T00:09:40.765Z,6.60
2017-12-26T00:10:40.565Z,9.30
2017-12-26T00:11:39.209Z,6.70
2017-12-26T00:12:40.778Z,6.40
2017-12-26T00:13:40.939Z,6.80
2017-12-26T00:14:40.212Z,7.30
2017-12-26T00:15:40.390Z,7.60
2017-12-26T00:16:39.027Z,7.60
2017-12-26T00:17:40.155Z,7.00
2017-12-26T00:18:40.881Z,6.20
2017-12-26T00:19:39.803Z,7.60
2017-12-26T00:20:39.577Z,7.20
2017-12-26T00:21:39.933Z,6.00
2017-12-26T00:22:39.569Z,5.80
2017-12-26T00:23:39.900Z,6.50
2017-12-26T00:24:40.787Z,7.20
2017-12-26T00:25:40.055Z,7.90
2017-12-26T00:26:40.494Z,7.30
2017-12-26T00:27:40.162Z,7.60
2017-12-26T00:28:39.561Z,6.70
2017-12-26T00:29:39.863Z,6.20
2017-12-26T00:30:39.885Z,8.20
2017-12-26T00:31:39.839Z,7.70
2017-12-26T00:32:39.404Z,7.20
2017-12-26T00:33:39.757Z,6.20
2017-12-26T00:34:39.690Z,6.10
2017-12-26T00:35:40.427Z,5.60
2017-12-26T00:36:39.712Z,4.90
2017-12-26T00:37:39.197Z,7.20
2017-12-26T00:38:39.768Z,7.70
2017-12-26T00:39:40.753Z,6.90
2017-12-26T00:40:40.277Z,8.20
2017-12-26T00:41:40.527Z,5.90
2017-12-26T00:42:39.439Z,6.60
2017-12-26T00:43:39.223Z,5.50
2017-12-26T00:44:39.880Z,6.20
2017-12-26T00:45:40.038Z,5.90
2017-12-26T00:46:43.562Z,6.80
2017-12-26T00:48:23.451Z,5.00
2017-12-26T00:49:23.199Z,5.20
2017-12-26T00:50:23.071Z,6.40
2017-12-26T00:51:24.288Z,6.50
2017-12-26T00:52:23.591Z,6.80
2017-12-26T00:53:24.005Z,5.80
2017-12-26T00:54:24.060Z,5.40
2017-12-26T00:55:23.981Z,6.10
2017-12-26T00:56:24.215Z,6.10
2017-12-26T00:57:24.523Z,5.10
2017-12-26T00:58:24.003Z,4.70
2017-12-26T00:59:23.983Z,6.20
2017-12-26T01:00:23.120Z,5.90
2017-12-26T01:01:23.755Z,7.10
2017-12-26T01:02:25.125Z,5.80
2017-12-26T01:03:26.899Z,5.60
2017-12-26T01:04:24.320Z,5.90
2017-12-26T01:05:23.508Z,5.50
2017-12-26T01:06:23.263Z,5.30
2017-12-26T01:07:23.557Z,5.10
2017-12-26T01:08:24.432Z,5.90
2017-12-26T01:09:23.416Z,4.90
2017-12-26T01:10:23.470Z,5.50
2017-12-26T01:11:23.148Z,5.90
2017-12-26T01:12:24.067Z,5.10
2017-12-26T01:13:45.953Z,6.50
2017-12-26T01:14:47.358Z,5.60
2017-12-26T01:15:46.959Z,5.50
2017-12-26T01:16:47.369Z,7.00
2017-12-26T01:17:46.068Z,6.10
2017-12-26T01:18:47.345Z,5.40
2017-12-26T01:19:46.722Z,4.70
2017-12-26T01:20:46.362Z,4.50
2017-12-26T01:21:46.768Z,4.30
2017-12-26T01:22:46.359Z,4.90
2017-12-26T01:23:46.031Z,5.20
2017-12-26T01:24:47.490Z,5.20
2017-12-26T01:25:47.610Z,5.30
2017-12-26T01:26:46.900Z,5.20
2017-12-26T01:28:25.199Z,4.60
2017-12-26T01:29:24.796Z,5.00
2017-12-26T01:30:25.350Z,5.20
2017-12-26T01:31:24.958Z,4.60
2017-12-26T01:32:25.451Z,5.30
2017-12-26T01:33:25.827Z,5.40
2017-12-26T01:34:25.394Z,4.80
2017-12-26T01:35:25.495Z,4.60
2017-12-26T01:36:25.230Z,5.20
2017-12-26T01:37:26.271Z,7.30
2017-12-26T01:38:25.648Z,4.40
2017-12-26T01:39:25.940Z,4.70
2017-12-26T01:40:25.330Z,4.30
2017-12-26T01:41:26.175Z,3.90
2017-12-26T01:42:25.037Z,4.10
2017-12-26T01:43:46.836Z,4.60
2017-12-26T01:44:48.153Z,4.80
2017-12-26T01:45:47.551Z,4.60
2017-12-26T01:46:48.318Z,5.90
2017-12-26T01:47:47.130Z,4.20
2017-12-26T01:48:47.697Z,4.10
2017-12-26T01:49:48.002Z,3.90
2017-12-26T01:51:09.830Z,4.40
2017-12-26T01:52:12.644Z,4.70
2017-12-26T01:53:32.367Z,4.70
2017-12-26T01:54:33.730Z,5.50
2017-12-26T01:55:33.955Z,4.30
2017-12-26T01:56:33.169Z,4.60
2017-12-26T01:57:33.976Z,4.60
2017-12-26T01:58:33.455Z,4.40
2017-12-26T01:59:33.686Z,4.40
2017-12-26T02:00:33.454Z,4.20
2017-12-26T02:01:33.643Z,4.30
2017-12-26T02:02:34.456Z,4.30
2017-12-26T02:03:33.228Z,4.20
2017-12-26T02:04:32.980Z,4.40
2017-12-26T02:05:33.281Z,4.60
2017-12-26T02:06:33.774Z,4.00
2017-12-26T02:07:33.510Z,4.50
2017-12-26T02:08:34.326Z,4.10
2017-12-26T02:09:33.681Z,4.50
2017-12-26T02:10:33.250Z,5.20
2017-12-26T02:11:33.042Z,3.80
2017-12-26T02:12:33.475Z,4.50
2017-12-26T02:13:33.969Z,4.60
2017-12-26T02:14:33.388Z,4.60
2017-12-26T02:15:33.229Z,4.90
2017-12-26T02:16:33.154Z,4.10
2017-12-26T02:17:56.055Z,5.10
2017-12-26T02:18:56.363Z,4.70
2017-12-26T02:19:55.253Z,4.60
2017-12-26T02:21:18.634Z,3.80
2017-12-26T02:22:18.913Z,4.30
2017-12-26T02:23:19.115Z,4.40
2017-12-26T02:24:19.611Z,4.30
2017-12-26T02:25:18.611Z,4.00
2017-12-26T02:26:18.074Z,5.90
2017-12-26T02:27:19.374Z,4.60
2017-12-26T02:28:18.834Z,4.60
2017-12-26T02:29:19.215Z,4.50
2017-12-26T02:30:41.674Z,4.20
2017-12-26T02:31:42.527Z,4.30
2017-12-26T02:33:04.729Z,4.10
2017-12-26T02:34:04.269Z,4.50
2017-12-26T02:35:27.976Z,4.30
2017-12-26T02:36:28.144Z,5.30
2017-12-26T02:37:28.052Z,4.60
2017-12-26T02:38:28.158Z,4.20
2017-12-26T02:39:28.168Z,4.90
2017-12-26T02:40:29.765Z,5.10
2017-12-26T02:41:27.666Z,4.60
2017-12-26T02:42:49.825Z,4.30
2017-12-26T02:44:12.754Z,4.70
2017-12-26T02:45:12.867Z,5.30
2017-12-26T02:46:13.152Z,4.30
2017-12-26T02:47:12.931Z,4.30
2017-12-26T02:48:13.396Z,4.80
2017-12-26T02:49:13.595Z,4.70
2017-12-26T02:50:13.523Z,4.50
2017-12-26T02:51:13.774Z,5.20
2017-12-26T02:52:13.556Z,5.30
2017-12-26T02:53:13.563Z,4.70
2017-12-26T02:54:37.764Z,0.00
2017-12-26T02:55:39.177Z,4.70
2017-12-26T02:56:38.907Z,4.70
2017-12-26T02:57:38.367Z,5.30
2017-12-26T02:58:38.137Z,8.10
2017-12-26T02:59:38.477Z,5.80
2017-12-26T03:00:38.427Z,7.10
2017-12-26T03:01:39.415Z,6.60
2017-12-26T03:02:38.648Z,6.70
2017-12-26T03:03:38.886Z,6.00
2017-12-26T03:04:38.195Z,5.80
2017-12-26T03:05:39.269Z,7.20
2017-12-26T03:06:38.860Z,6.10
2017-12-26T03:07:39.037Z,6.60
2017-12-26T03:08:38.276Z,5.60
2017-12-26T03:09:38.039Z,9.20
2017-12-26T03:10:37.858Z,8.70
2017-12-26T03:11:39.552Z,7.00
2017-12-26T03:12:38.165Z,6.60
2017-12-26T03:13:38.091Z,6.80
2017-12-26T03:14:38.254Z,8.00
2017-12-26T03:15:37.923Z,6.50
2017-12-26T03:16:37.926Z,8.30
2017-12-26T03:17:38.839Z,5.80
2017-12-26T03:18:39.059Z,7.00
2017-12-26T03:19:38.533Z,6.50
2017-12-26T03:20:38.998Z,7.50
2017-12-26T03:21:37.978Z,6.40
2017-12-26T03:22:38.360Z,6.10
2017-12-26T03:23:38.677Z,7.40
2017-12-26T03:24:38.553Z,7.00
2017-12-26T03:25:38.989Z,6.50
2017-12-26T03:26:37.848Z,7.90
2017-12-26T03:27:38.164Z,6.00
2017-12-26T03:28:38.924Z,6.40
2017-12-26T03:29:38.279Z,7.10
2017-12-26T03:30:38.555Z,7.10
2017-12-26T03:31:38.731Z,6.30
2017-12-26T03:32:38.960Z,6.00
2017-12-26T03:33:38.345Z,6.50
2017-12-26T03:34:38.862Z,6.80
2017-12-26T03:35:38.408Z,8.60
2017-12-26T03:36:38.769Z,6.30
2017-12-26T03:37:38.681Z,7.00
2017-12-26T03:38:38.957Z,6.40
2017-12-26T03:39:39.175Z,7.20
2017-12-26T03:40:37.973Z,8.20
2017-12-26T03:41:38.409Z,7.20
2017-12-26T03:42:38.474Z,6.60
2017-12-26T03:43:38.683Z,7.00
2017-12-26T03:44:38.808Z,8.50
2017-12-26T03:45:37.539Z,7.40
2017-12-26T03:46:38.527Z,7.20
2017-12-26T03:47:38.517Z,6.40
2017-12-26T03:48:38.135Z,7.30
2017-12-26T03:49:38.264Z,8.30
2017-12-26T03:50:38.269Z,8.70
2017-12-26T03:51:37.924Z,8.60
2017-12-26T03:52:37.604Z,6.70
2017-12-26T03:53:38.478Z,6.70
2017-12-26T03:54:38.780Z,5.60
2017-12-26T03:55:39.047Z,7.70
2017-12-26T03:56:37.937Z,7.00
2017-12-26T03:57:37.944Z,8.20
2017-12-26T03:58:38.284Z,7.50
2017-12-26T03:59:38.329Z,7.70
2017-12-26T04:00:38.158Z,6.50
2017-12-26T04:01:37.803Z,6.80
2017-12-26T04:02:38.496Z,6.70
2017-12-26T04:03:38.707Z,6.90
2017-12-26T04:04:39.328Z,6.50
2017-12-26T04:05:38.721Z,7.20
2017-12-26T04:06:39.036Z,6.90
2017-12-26T04:07:38.383Z,7.30
2017-12-26T04:08:38.439Z,6.80
2017-12-26T04:09:38.731Z,9.20
2017-12-26T04:10:38.345Z,6.40
2017-12-26T04:11:37.913Z,6.70
2017-12-26T04:12:59.555Z,10.20
2017-12-26T04:13:59.866Z,6.80
2017-12-26T04:15:00.603Z,7.30
2017-12-26T04:15:59.420Z,7.00
2017-12-26T04:16:59.004Z,6.50
2017-12-26T04:18:00.485Z,8.00
2017-12-26T04:18:59.640Z,6.30
2017-12-26T04:20:00.150Z,6.70
2017-12-26T04:21:00.992Z,6.50
2017-12-26T04:21:59.418Z,7.10
2017-12-26T04:23:21.103Z,8.00
2017-12-26T04:24:22.377Z,8.00
2017-12-26T04:25:22.291Z,7.60
2017-12-26T04:26:22.573Z,7.20
2017-12-26T04:27:21.416Z,7.70
2017-12-26T04:28:22.737Z,7.90
2017-12-26T04:29:22.156Z,7.50
2017-12-26T04:30:22.470Z,12.90
2017-12-26T04:31:21.227Z,8.30
2017-12-26T04:32:22.552Z,6.20
2017-12-26T04:33:22.044Z,9.10
2017-12-26T04:34:22.180Z,7.50
2017-12-26T04:35:22.104Z,9.60
2017-12-26T04:36:22.040Z,8.00
2017-12-26T04:37:22.883Z,7.60
2017-12-26T04:38:22.087Z,8.30
2017-12-26T04:39:21.568Z,8.30
2017-12-26T04:40:21.524Z,8.50
2017-12-26T04:41:21.887Z,8.30
2017-12-26T04:42:21.984Z,7.90
2017-12-26T04:43:22.215Z,6.90
2017-12-26T04:44:22.165Z,8.50
2017-12-26T04:45:21.938Z,8.90
2017-12-26T04:46:22.559Z,10.20
2017-12-26T04:47:22.339Z,8.80
2017-12-26T04:48:22.126Z,8.00
2017-12-26T04:49:22.127Z,7.50
2017-12-26T04:50:21.852Z,9.00
2017-12-26T04:51:22.007Z,7.30
2017-12-26T04:52:21.616Z,8.80
2017-12-26T04:53:21.915Z,7.10
2017-12-26T04:54:22.527Z,7.10
2017-12-26T04:55:21.146Z,7.80
2017-12-26T04:56:22.528Z,8.30
2017-12-26T04:57:22.823Z,8.10
2017-12-26T04:58:43.593Z,7.20
2017-12-26T04:59:43.772Z,8.70
2017-12-26T05:00:44.187Z,8.40
2017-12-26T05:01:44.450Z,8.30
2017-12-26T05:02:44.578Z,8.10
2017-12-26T05:03:43.171Z,9.60
2017-12-26T05:04:43.569Z,9.20
2017-12-26T05:05:43.786Z,7.80
2017-12-26T05:06:44.207Z,7.40
2017-12-26T05:07:43.980Z,7.90
2017-12-26T05:08:43.802Z,7.40
2017-12-26T05:10:05.755Z,9.20
2017-12-26T05:11:06.553Z,9.80
2017-12-26T05:12:27.817Z,8.00
2017-12-26T05:13:28.596Z,9.20
2017-12-26T05:14:28.932Z,7.60
2017-12-26T05:15:29.748Z,7.10
2017-12-26T05:16:29.171Z,8.00
2017-12-26T05:17:29.497Z,7.20
2017-12-26T05:18:28.897Z,9.50
2017-12-26T05:19:29.355Z,8.60
2017-12-26T05:20:28.108Z,7.70
2017-12-26T05:21:29.600Z,7.70
2017-12-26T05:22:28.069Z,9.00
2017-12-26T05:23:28.511Z,10.00
2017-12-26T05:24:28.033Z,10.00
2017-12-26T05:25:28.678Z,9.40
2017-12-26T05:26:50.251Z,7.80
2017-12-26T05:28:12.678Z,9.30
2017-12-26T05:29:12.713Z,7.40
2017-12-26T05:30:13.040Z,8.50
2017-12-26T05:31:13.339Z,7.10
2017-12-26T05:32:13.391Z,8.10
2017-12-26T05:33:12.681Z,8.60
2017-12-26T05:34:12.614Z,10.70
2017-12-26T05:35:12.958Z,10.30
2017-12-26T05:36:13.982Z,8.50
2017-12-26T05:37:13.829Z,8.70
2017-12-26T05:38:12.941Z,9.60
2017-12-26T05:39:12.884Z,7.20
2017-12-26T05:40:12.465Z,7.90
2017-12-26T05:41:12.133Z,8.30
2017-12-26T05:42:13.792Z,6.40
2017-12-26T05:43:13.008Z,9.20
2017-12-26T05:44:12.981Z,10.60
2017-12-26T05:45:13.193Z,7.40
2017-12-26T05:46:34.796Z,8.10
2017-12-26T05:47:36.685Z,10.30
2017-12-26T05:48:35.941Z,7.40
2017-12-26T05:49:35.744Z,7.10
2017-12-26T05:50:35.644Z,7.50
2017-12-26T05:51:35.619Z,10.00
2017-12-26T05:52:35.386Z,8.30
2017-12-26T05:53:35.663Z,9.50
2017-12-26T05:54:35.651Z,7.80
2017-12-26T05:55:35.824Z,6.00
2017-12-26T05:56:35.473Z,7.60
2017-12-26T05:57:34.938Z,7.90
2017-12-26T05:58:36.530Z,7.80
2017-12-26T05:59:35.811Z,7.40
2017-12-26T06:00:35.299Z,8.00
2017-12-26T06:01:34.817Z,8.60
2017-12-26T06:02:35.551Z,8.40
2017-12-26T06:03:35.958Z,10.40
2017-12-26T06:04:57.967Z,6.20
2017-12-26T06:05:59.063Z,5.90
2017-12-26T06:07:00.238Z,8.40
2017-12-26T06:07:59.130Z,6.40
2017-12-26T06:08:58.592Z,6.30
2017-12-26T06:09:59.349Z,9.00
2017-12-26T06:10:59.464Z,7.60
2017-12-26T06:11:58.877Z,9.00
2017-12-26T06:12:58.438Z,8.60
2017-12-26T06:13:58.138Z,5.50
2017-12-26T06:15:00.607Z,8.20
2017-12-26T06:15:58.818Z,7.30
2017-12-26T06:16:59.129Z,7.00
2017-12-26T06:17:59.521Z,7.90
2017-12-26T06:18:58.331Z,7.30
2017-12-26T06:19:59.353Z,7.30
2017-12-26T06:20:58.085Z,7.20
2017-12-26T06:21:58.906Z,6.90
2017-12-26T06:22:59.029Z,7.30
2017-12-26T06:23:59.360Z,6.90
2017-12-26T06:24:59.362Z,7.70
2017-12-26T06:25:58.352Z,6.90
2017-12-26T06:26:58.920Z,6.90
2017-12-26T06:27:58.930Z,6.20
2017-12-26T06:28:59.276Z,8.80
2017-12-26T06:29:59.980Z,7.80
2017-12-26T06:30:59.258Z,6.80
2017-12-26T06:32:21.135Z,5.90
2017-12-26T06:33:20.560Z,6.00
2017-12-26T06:34:21.785Z,4.50
2017-12-26T06:35:22.097Z,7.40
2017-12-26T06:36:20.799Z,6.20
2017-12-26T06:37:21.542Z,7.90
2017-12-26T06:38:21.264Z,6.90
2017-12-26T06:39:21.613Z,5.60
2017-12-26T06:40:22.037Z,4.90
2017-12-26T06:41:21.275Z,8.80
2017-12-26T06:42:21.341Z,5.50
2017-12-26T06:43:21.264Z,9.90
2017-12-26T06:44:20.782Z,7.00
2017-12-26T06:45:22.213Z,5.30
2017-12-26T06:46:20.777Z,5.00
2017-12-26T06:47:21.383Z,4.90
2017-12-26T06:48:20.824Z,6.20
2017-12-26T06:49:22.047Z,4.80
2017-12-26T06:50:21.199Z,6.70
2017-12-26T06:51:21.749Z,5.70
2017-12-26T06:52:22.263Z,6.80
2017-12-26T06:53:21.509Z,4.20
2017-12-26T06:54:21.894Z,5.80
2017-12-26T06:55:21.091Z,4.50
2017-12-26T06:56:21.265Z,3.70
2017-12-26T06:57:21.376Z,4.80
2017-12-26T06:58:21.683Z,7.20
2017-12-26T06:59:21.526Z,7.10
2017-12-26T07:00:21.043Z,6.80
2017-12-26T07:01:20.839Z,8.20
2017-12-26T07:02:20.562Z,6.80
2017-12-26T07:03:21.977Z,4.80
2017-12-26T07:04:22.183Z,4.20
2017-12-26T07:05:21.540Z,6.40
2017-12-26T07:06:21.816Z,4.70
2017-12-26T07:07:20.722Z,6.80
2017-12-26T07:08:21.904Z,9.30
2017-12-26T07:09:21.431Z,5.90
2017-12-26T07:10:20.862Z,6.50
2017-12-26T07:11:21.241Z,6.90
2017-12-26T07:12:20.844Z,9.10
2017-12-26T07:13:20.531Z,6.10
2017-12-26T07:14:21.426Z,5.70
2017-12-26T07:15:21.926Z,6.80
2017-12-26T07:16:21.514Z,4.50
2017-12-26T07:17:21.661Z,8.90
2017-12-26T07:18:21.998Z,7.20
2017-12-26T07:19:21.055Z,7.80
2017-12-26T07:20:21.062Z,9.10
2017-12-26T07:21:20.931Z,8.10
2017-12-26T07:22:22.160Z,6.20
2017-12-26T07:23:20.859Z,8.90
2017-12-26T07:24:21.686Z,8.50
2017-12-26T07:25:21.986Z,7.90
2017-12-26T07:26:20.555Z,5.20
2017-12-26T07:27:21.967Z,5.70
2017-12-26T07:28:42.678Z,9.10
2017-12-26T07:30:05.015Z,7.90
2017-12-26T07:31:26.450Z,8.00
2017-12-26T07:32:27.720Z,14.60
2017-12-26T07:33:27.993Z,9.80
2017-12-26T07:34:26.894Z,9.80
2017-12-26T07:35:26.929Z,7.50
2017-12-26T07:36:27.815Z,9.90
2017-12-26T07:37:27.325Z,10.30
2017-12-26T07:38:27.839Z,7.10
2017-12-26T07:39:26.795Z,9.00
2017-12-26T07:40:27.388Z,10.00
2017-12-26T07:41:27.638Z,8.50
2017-12-26T07:42:27.274Z,9.00
2017-12-26T07:43:27.632Z,10.80
2017-12-26T07:44:27.609Z,5.70
2017-12-26T07:45:28.063Z,8.00
2017-12-26T07:46:27.909Z,9.60
2017-12-26T07:47:48.964Z,10.40
2017-12-26T07:48:48.677Z,9.80
2017-12-26T07:49:50.386Z,9.40
2017-12-26T07:50:49.530Z,10.20
2017-12-26T07:52:11.720Z,10.40
2017-12-26T07:53:11.976Z,9.00
2017-12-26T07:54:12.387Z,8.40
2017-12-26T07:55:11.825Z,10.40
2017-12-26T07:56:11.659Z,8.60
2017-12-26T07:57:12.030Z,6.70
2017-12-26T07:58:11.708Z,9.50
2017-12-26T07:59:33.757Z,8.80
2017-12-26T08:00:34.951Z,9.40
2017-12-26T08:01:33.516Z,9.40
2017-12-26T08:02:35.248Z,9.60
2017-12-26T08:03:34.647Z,7.40
2017-12-26T08:04:34.439Z,9.90
2017-12-26T08:05:35.323Z,6.00
2017-12-26T08:06:34.357Z,8.50
2017-12-26T08:07:56.349Z,8.60
2017-12-26T08:08:56.671Z,9.50
2017-12-26T08:09:57.068Z,9.40
2017-12-26T08:10:57.398Z,10.60
2017-12-26T08:11:56.745Z,9.90
2017-12-26T08:12:57.523Z,9.80
2017-12-26T08:13:56.954Z,8.90
2017-12-26T08:14:57.045Z,7.60
2017-12-26T08:15:57.936Z,7.20
2017-12-26T08:16:57.132Z,6.90
2017-12-26T08:17:56.603Z,6.80
2017-12-26T08:18:57.112Z,6.80
2017-12-26T08:19:56.502Z,6.40
2017-12-26T08:20:56.758Z,8.50
2017-12-26T08:21:56.682Z,7.40
2017-12-26T08:22:56.651Z,5.60
2017-12-26T08:23:57.272Z,6.00
2017-12-26T08:24:56.681Z,7.60
2017-12-26T08:25:57.347Z,4.10
2017-12-26T08:26:56.741Z,4.90
2017-12-26T08:27:56.447Z,3.20
2017-12-26T08:29:19.248Z,6.80
2017-12-26T08:30:41.508Z,4.20
2017-12-26T08:31:42.097Z,4.20
2017-12-26T08:32:41.401Z,3.80
2017-12-26T08:33:41.443Z,3.60
2017-12-26T08:34:42.522Z,6.00
2017-12-26T08:35:41.071Z,3.70
2017-12-26T08:36:41.068Z,3.20
2017-12-26T08:37:40.620Z,3.90
2017-12-26T08:38:41.847Z,2.50
2017-12-26T08:39:42.593Z,2.50
2017-12-26T08:40:41.538Z,4.60
2017-12-26T08:41:42.390Z,3.10
2017-12-26T08:42:41.722Z,2.60
2017-12-26T08:44:25.352Z,4.50
2017-12-26T08:45:27.084Z,2.90
2017-12-26T08:46:26.606Z,2.40
2017-12-26T08:47:25.494Z,2.60
2017-12-26T08:48:25.454Z,2.60
2017-12-26T08:49:26.646Z,3.60
2017-12-26T08:50:25.997Z,3.10
2017-12-26T08:51:26.323Z,4.30
2017-12-26T08:52:47.573Z,2.50
2017-12-26T08:53:48.082Z,4.50
2017-12-26T08:54:48.115Z,3.30
2017-12-26T08:55:48.410Z,2.50
2017-12-26T08:56:48.609Z,1.90
2017-12-26T08:57:47.650Z,2.80
2017-12-26T08:58:48.013Z,3.50
2017-12-26T08:59:47.604Z,3.30
2017-12-26T09:00:47.954Z,2.50
2017-12-26T09:01:48.440Z,4.00
2017-12-26T09:02:48.006Z,3.10
2017-12-26T09:03:47.696Z,3.90
2017-12-26T09:05:10.188Z,3.30
2017-12-26T09:06:10.559Z,4.00
2017-12-26T09:07:33.104Z,3.20
2017-12-26T09:08:33.975Z,5.00
2017-12-26T09:09:33.089Z,2.80
2017-12-26T09:10:33.435Z,3.70
2017-12-26T09:11:33.772Z,3.20
2017-12-26T09:12:32.893Z,3.80
2017-12-26T09:13:32.555Z,4.30
2017-12-26T09:14:34.476Z,4.40
2017-12-26T09:15:33.840Z,3.70
2017-12-26T09:16:33.206Z,8.50
2017-12-26T09:17:33.287Z,3.30
2017-12-26T09:18:33.726Z,3.20
2017-12-26T09:19:32.653Z,3.20
2017-12-26T09:20:33.996Z,3.40
2017-12-26T09:21:33.063Z,3.50
2017-12-26T09:22:33.585Z,3.70
2017-12-26T09:23:34.591Z,3.80
2017-12-26T09:24:33.884Z,3.80
2017-12-26T09:25:33.462Z,3.60
2017-12-26T09:26:34.226Z,4.20
2017-12-26T09:27:33.336Z,3.20
2017-12-26T09:28:33.414Z,3.00
2017-12-26T09:29:33.975Z,3.60
2017-12-26T09:30:33.242Z,3.20
2017-12-26T09:31:33.889Z,4.70
2017-12-26T09:32:32.969Z,3.30
2017-12-26T09:33:32.983Z,4.70
2017-12-26T09:34:33.450Z,3.90
2017-12-26T09:35:33.705Z,2.90
2017-12-26T09:36:33.263Z,3.00
2017-12-26T09:37:34.019Z,2.70
2017-12-26T09:38:33.667Z,3.30
2017-12-26T09:39:34.037Z,3.30
2017-12-26T09:40:33.113Z,6.10
2017-12-26T09:41:33.655Z,3.70
2017-12-26T09:42:32.775Z,3.60
2017-12-26T09:43:33.633Z,3.30
2017-12-26T09:44:33.906Z,3.20
2017-12-26T09:45:33.407Z,3.20
2017-12-26T09:46:33.757Z,6.00
2017-12-26T09:47:34.097Z,3.70
2017-12-26T09:48:33.521Z,2.90
2017-12-26T09:49:34.383Z,4.50
2017-12-26T09:50:33.942Z,3.30
2017-12-26T09:51:33.447Z,2.60
2017-12-26T09:52:34.004Z,3.90
2017-12-26T09:53:33.803Z,2.90
2017-12-26T09:54:33.266Z,2.50
2017-12-26T09:55:34.717Z,3.40
2017-12-26T09:56:33.237Z,4.30
2017-12-26T09:57:33.800Z,2.60
2017-12-26T09:58:33.597Z,3.40
2017-12-26T09:59:34.157Z,3.50
2017-12-26T10:00:34.135Z,3.80
2017-12-26T10:01:33.640Z,3.00
2017-12-26T10:02:33.110Z,6.00
2017-12-26T10:03:33.286Z,3.40
2017-12-26T10:04:33.389Z,3.00
2017-12-26T10:05:33.496Z,3.20
2017-12-26T10:06:33.958Z,4.40
2017-12-26T10:07:33.443Z,3.10
2017-12-26T10:08:33.972Z,3.60
2017-12-26T10:09:33.464Z,3.70
2017-12-26T10:10:33.642Z,4.50
2017-12-26T10:11:32.953Z,4.20
2017-12-26T10:12:33.162Z,3.90
2017-12-26T10:13:34.072Z,5.50
2017-12-26T10:14:33.583Z,3.50
2017-12-26T10:15:34.396Z,2.70
2017-12-26T10:16:33.770Z,4.30
2017-12-26T10:17:33.031Z,4.80
2017-12-26T10:18:33.470Z,3.20
2017-12-26T10:20:18.723Z,3.00
2017-12-26T10:21:18.298Z,3.40
2017-12-26T10:22:18.779Z,2.80
2017-12-26T10:23:18.329Z,2.30
2017-12-26T10:24:18.118Z,2.40
2017-12-26T10:25:18.464Z,2.60
2017-12-26T10:26:19.509Z,2.90
2017-12-26T10:27:18.884Z,3.50
2017-12-26T10:28:18.602Z,4.10
2017-12-26T10:29:18.177Z,3.40
2017-12-26T10:30:19.365Z,3.00
2017-12-26T10:31:19.049Z,3.20
2017-12-26T10:32:18.511Z,2.30
2017-12-26T10:33:19.313Z,2.50
2017-12-26T10:35:03.592Z,3.20
2017-12-26T10:36:04.076Z,2.60
2017-12-26T10:37:27.914Z,3.50
2017-12-26T10:38:27.607Z,2.90
2017-12-26T10:39:28.053Z,3.90
2017-12-26T10:40:28.450Z,2.60
2017-12-26T10:41:28.377Z,2.70
2017-12-26T10:42:28.548Z,3.40
2017-12-26T10:43:27.860Z,3.40
2017-12-26T10:44:28.127Z,3.30
2017-12-26T10:45:50.817Z,2.80
2017-12-26T10:46:50.080Z,3.00
2017-12-26T10:47:50.859Z,2.30
2017-12-26T10:48:50.406Z,2.40
2017-12-26T10:49:49.778Z,2.20
2017-12-26T10:50:50.484Z,1.80
2017-12-26T10:51:51.141Z,2.90
2017-12-26T10:52:50.662Z,3.00
2017-12-26T10:53:51.103Z,2.80
2017-12-26T10:54:50.561Z,7.30
2017-12-26T10:55:50.405Z,2.30
2017-12-26T10:56:52.156Z,2.70
2017-12-26T10:57:51.157Z,2.50
2017-12-26T10:58:51.140Z,2.40
2017-12-26T10:59:49.707Z,2.20
2017-12-26T11:00:50.479Z,2.70
2017-12-26T11:01:50.035Z,3.00
2017-12-26T11:02:50.457Z,2.10
2017-12-26T11:03:50.094Z,3.60
2017-12-26T11:04:51.080Z,2.60
2017-12-26T11:05:50.611Z,4.80
2017-12-26T11:06:50.092Z,3.20
2017-12-26T11:07:50.567Z,2.20
2017-12-26T11:08:50.005Z,2.70
2017-12-26T11:09:50.794Z,2.80
2017-12-26T11:10:50.690Z,3.00
2017-12-26T11:11:50.327Z,2.80
2017-12-26T11:12:50.097Z,3.10
2017-12-26T11:13:50.722Z,3.40
2017-12-26T11:14:51.014Z,3.10
2017-12-26T11:15:50.832Z,2.70
2017-12-26T11:16:52.167Z,2.70
2017-12-26T11:17:51.951Z,2.70
2017-12-26T11:18:51.001Z,2.80
2017-12-26T11:19:50.704Z,3.60
2017-12-26T11:20:50.935Z,2.10
2017-12-26T11:21:50.470Z,2.60
2017-12-26T11:22:50.569Z,4.50
2017-12-26T11:23:50.085Z,3.20
2017-12-26T11:24:50.720Z,2.40
2017-12-26T11:25:50.193Z,6.00
2017-12-26T11:26:49.868Z,3.30
2017-12-26T11:27:50.755Z,3.00
2017-12-26T11:28:50.330Z,4.40
2017-12-26T11:29:50.033Z,2.60
2017-12-26T11:30:49.685Z,2.80
2017-12-26T11:31:50.134Z,2.40
2017-12-26T11:32:50.016Z,2.40
2017-12-26T11:33:51.570Z,3.30
2017-12-26T11:34:50.254Z,2.60
2017-12-26T11:35:50.332Z,3.30
2017-12-26T11:36:49.792Z,2.70
2017-12-26T11:37:50.938Z,3.10
2017-12-26T11:38:50.660Z,2.40
2017-12-26T11:40:37.994Z,3.10
2017-12-26T11:41:38.730Z,2.90
2017-12-26T11:42:39.189Z,2.60
2017-12-26T11:43:38.568Z,2.30
2017-12-26T11:44:38.137Z,3.40
2017-12-26T11:45:39.184Z,3.30
2017-12-26T11:46:38.892Z,2.80
2017-12-26T11:47:39.055Z,3.00
2017-12-26T11:48:38.832Z,3.70
2017-12-26T11:49:39.065Z,3.00
2017-12-26T11:51:02.609Z,3.20
2017-12-26T11:52:03.912Z,2.20
2017-12-26T11:53:03.081Z,3.90
2017-12-26T11:54:02.992Z,2.30
2017-12-26T11:55:03.044Z,2.30
2017-12-26T11:56:01.953Z,1.70
2017-12-26T11:57:02.041Z,3.60
2017-12-26T11:58:01.607Z,3.60
2017-12-26T11:59:01.975Z,2.70
2017-12-26T12:00:02.248Z,2.60
2017-12-26T12:01:02.536Z,2.20
2017-12-26T12:02:02.176Z,2.50
2017-12-26T12:03:01.632Z,2.70
2017-12-26T12:04:02.282Z,4.90
2017-12-26T12:05:01.947Z,3.80
2017-12-26T12:06:24.748Z,2.90
2017-12-26T12:07:25.245Z,2.50
2017-12-26T12:08:25.679Z,3.10
2017-12-26T12:09:25.084Z,3.90
2017-12-26T12:10:24.665Z,3.70
2017-12-26T12:11:26.595Z,3.60
2017-12-26T12:12:25.359Z,3.20
2017-12-26T12:13:25.413Z,2.30
2017-12-26T12:14:25.138Z,2.20
2017-12-26T12:15:26.112Z,4.20
2017-12-26T12:16:25.572Z,4.70
2017-12-26T12:17:26.747Z,3.40
2017-12-26T12:18:25.426Z,2.20
2017-12-26T12:19:25.030Z,2.60
2017-12-26T12:20:24.746Z,5.40
2017-12-26T12:21:25.502Z,4.30
2017-12-26T12:22:25.362Z,2.40
2017-12-26T12:23:25.388Z,2.40
2017-12-26T12:24:24.749Z,2.40
2017-12-26T12:25:25.563Z,2.80
2017-12-26T12:26:25.999Z,2.90
2017-12-26T12:27:24.902Z,2.70
2017-12-26T12:28:24.691Z,2.50
2017-12-26T12:29:25.751Z,6.20
2017-12-26T12:30:26.398Z,2.40
2017-12-26T12:31:24.988Z,2.20
2017-12-26T12:32:48.125Z,2.50
2017-12-26T12:33:47.889Z,4.30
2017-12-26T12:34:48.882Z,1.90
2017-12-26T12:36:11.737Z,2.50
2017-12-26T12:37:36.042Z,2.80
2017-12-26T12:38:35.610Z,3.00
2017-12-26T12:39:35.224Z,3.10
2017-12-26T12:40:36.063Z,2.50
2017-12-26T12:41:34.396Z,3.10
2017-12-26T12:42:35.095Z,2.30
2017-12-26T12:43:36.018Z,1.80
2017-12-26T12:44:34.606Z,3.10
2017-12-26T12:45:35.142Z,2.60
2017-12-26T12:46:35.057Z,3.50
2017-12-26T12:47:34.657Z,3.20
2017-12-26T12:48:35.785Z,3.00
2017-12-26T12:49:35.267Z,3.50
2017-12-26T12:50:34.733Z,1.50
2017-12-26T12:51:35.934Z,3.50
2017-12-26T12:52:36.402Z,3.40
2017-12-26T12:53:35.171Z,2.80
2017-12-26T12:54:34.871Z,5.70
2017-12-26T12:55:35.277Z,3.20
2017-12-26T12:56:36.248Z,2.60
2017-12-26T12:57:36.451Z,3.70
2017-12-26T12:58:34.985Z,3.30
2017-12-26T12:59:34.525Z,2.00
2017-12-26T13:00:35.297Z,2.60
2017-12-26T13:01:34.815Z,4.50
2017-12-26T13:02:35.286Z,2.80
2017-12-26T13:03:35.355Z,2.40
2017-12-26T13:04:35.150Z,1.90
2017-12-26T13:05:34.682Z,2.00
2017-12-26T13:06:35.369Z,3.30
2017-12-26T13:07:34.800Z,1.90
2017-12-26T13:08:36.986Z,1.70
2017-12-26T13:09:36.107Z,4.40
2017-12-26T13:10:34.614Z,2.30
2017-12-26T13:11:35.668Z,1.90
2017-12-26T13:12:35.175Z,1.60
2017-12-26T13:13:45.189Z,2.60
2017-12-26T13:14:45.468Z,3.10
2017-12-26T13:15:42.794Z,2.10
2017-12-26T13:16:59.300Z,1.90
2017-12-26T13:17:59.815Z,4.00
2017-12-26T13:19:00.729Z,1.80
2017-12-26T13:20:00.554Z,1.40
2017-12-26T13:20:58.961Z,2.40
2017-12-26T13:21:59.393Z,3.60
2017-12-26T13:22:59.624Z,3.20
2017-12-26T13:23:59.190Z,1.60
2017-12-26T13:24:59.725Z,2.80
2017-12-26T13:25:59.569Z,1.50
2017-12-26T13:27:00.462Z,2.20
2017-12-26T13:27:59.062Z,1.20
2017-12-26T13:28:59.738Z,2.10
2017-12-26T13:29:59.540Z,2.50
2017-12-26T13:30:58.974Z,1.80
2017-12-26T13:31:59.939Z,2.20
2017-12-26T13:32:59.443Z,3.80
2017-12-26T13:33:58.882Z,3.20
2017-12-26T13:34:59.121Z,2.80
2017-12-26T13:36:00.223Z,2.40
2017-12-26T13:36:58.934Z,2.20
2017-12-26T13:37:59.622Z,1.30